createdAt,value
2023-04-28T00:00:04.554Z,101448.31
2023-04-28T00:02:32.007Z,101451.16
2023-04-28T00:04:59.078Z,101445.47
2023-04-28T00:07:26.730Z,101446.59
2023-04-28T00:09:53.641Z,101438.34
2023-04-28T00:12:20.608Z,101439.78
2023-04-28T00:14:47.485Z,101428.69
2023-04-28T00:17:14.505Z,101420.13
2023-04-28T00:19:42.240Z,101432.38
2023-04-28T00:22:12.391Z,101424.69
2023-04-28T00:24:41.916Z,101426.09
2023-04-28T00:27:08.918Z,101424.41
2023-04-28T00:29:38.362Z,101425.56
2023-04-28T00:32:05.546Z,101420.97
2023-04-28T00:34:37.987Z,101419.97
2023-04-28T00:37:04.971Z,101414.84
2023-04-28T00:39:34.875Z,101412.13
2023-04-28T00:42:02.453Z,101414.56
2023-04-28T00:44:29.568Z,101410.84
2023-04-28T00:46:59.244Z,101402.59
2023-04-28T00:49:26.533Z,101402.44
2023-04-28T00:51:53.480Z,101393.75
2023-04-28T00:54:22.719Z,101389.22
2023-04-28T00:56:52.365Z,101396.31
2023-04-28T00:59:19.189Z,101391.63
2023-04-28T01:01:49.668Z,101395.03
2023-04-28T01:04:21.591Z,101390.63
2023-04-28T01:06:49.994Z,101387.72
2023-04-28T01:09:19.477Z,101385.34
2023-04-28T01:11:46.399Z,101389.88
2023-04-28T01:14:13.425Z,101382.22
2023-04-28T01:16:46.990Z,101382.91
2023-04-28T01:19:22.373Z,101381.91
2023-04-28T01:21:50.824Z,101382.34
2023-04-28T01:24:20.320Z,101380.31
2023-04-28T01:26:47.218Z,101380.47
2023-04-28T01:29:14.368Z,101372.34
2023-04-28T01:31:43.450Z,101370.78
2023-04-28T01:34:15.068Z,101371.63
2023-04-28T01:36:42.222Z,101378.72
2023-04-28T01:39:12.163Z,101371.59
2023-04-28T01:41:43.642Z,101369.06
2023-04-28T01:44:13.251Z,101375.16
2023-04-28T01:46:40.460Z,101365.63
2023-04-28T01:49:07.783Z,101369.03
2023-04-28T01:51:34.684Z,101361.50
2023-04-28T01:54:01.596Z,101363.47
2023-04-28T01:56:28.431Z,101363.00
2023-04-28T01:58:55.273Z,101361.81
2023-04-28T02:01:22.270Z,101368.28
2023-04-28T02:03:52.492Z,101361.34
2023-04-28T02:06:19.616Z,101359.81
2023-04-28T02:08:46.638Z,101347.00
2023-04-28T02:11:13.563Z,101350.91
2023-04-28T02:13:43.540Z,101350.66
2023-04-28T02:16:10.470Z,101349.22
2023-04-28T02:18:37.374Z,101354.06
2023-04-28T02:21:12.206Z,101342.81
2023-04-28T02:23:40.523Z,101344.41
2023-04-28T02:26:10.549Z,101346.75
2023-04-28T02:28:39.674Z,101350.22
2023-04-28T02:31:13.996Z,101349.91
2023-04-28T02:33:42.508Z,101343.06
2023-04-28T02:36:10.657Z,101336.22
2023-04-28T02:38:41.567Z,101337.94
2023-04-28T02:41:09.452Z,101336.56
2023-04-28T02:43:37.466Z,101336.69
2023-04-28T02:46:05.131Z,101332.16
2023-04-28T02:48:36.083Z,101336.72
2023-04-28T02:51:03.186Z,101331.44
2023-04-28T02:53:32.560Z,101332.31
2023-04-28T02:56:04.591Z,101330.16
2023-04-28T02:58:34.559Z,101322.66
2023-04-28T03:01:04.024Z,101319.91
2023-04-28T03:03:31.178Z,101309.31
2023-04-28T03:05:58.135Z,101307.94
2023-04-28T03:08:25.152Z,101301.69
2023-04-28T03:10:52.052Z,101291.03
2023-04-28T03:13:18.924Z,101292.34
2023-04-28T03:15:45.838Z,101291.09
2023-04-28T03:18:13.000Z,101287.69
2023-04-28T03:20:42.054Z,101286.56
2023-04-28T03:23:09.152Z,101279.84
2023-04-28T03:25:36.238Z,101277.22
2023-04-28T03:28:03.551Z,101288.06
2023-04-28T03:30:30.454Z,101279.25
2023-04-28T03:33:01.920Z,101285.84
2023-04-28T03:35:33.657Z,101278.69
2023-04-28T03:38:03.050Z,101276.03
2023-04-28T03:40:30.002Z,101280.44
2023-04-28T03:43:00.223Z,101267.41
2023-04-28T03:45:27.602Z,101268.09
2023-04-28T03:47:56.643Z,101260.53
2023-04-28T03:50:26.036Z,101251.13
2023-04-28T03:52:53.750Z,101249.81
2023-04-28T03:55:22.898Z,101247.50
2023-04-28T03:57:52.464Z,101244.88
2023-04-28T04:00:19.926Z,101243.50
2023-04-28T04:02:52.681Z,101241.47
2023-04-28T04:05:20.097Z,101241.00
2023-04-28T04:07:47.244Z,101236.78
2023-04-28T04:10:16.245Z,101237.38
2023-04-28T04:12:43.180Z,101241.91
2023-04-28T04:15:10.817Z,101245.06
2023-04-28T04:17:38.055Z,101240.38
2023-04-28T04:20:06.383Z,101238.34
2023-04-28T04:22:33.240Z,101237.91
2023-04-28T04:25:02.690Z,101230.84
2023-04-28T04:27:31.908Z,101237.78
2023-04-28T04:29:58.954Z,101232.84
2023-04-28T04:32:25.861Z,101228.47
2023-04-28T04:34:52.857Z,101227.75
2023-04-28T04:37:22.009Z,101219.09
2023-04-28T04:39:55.927Z,101211.47
2023-04-28T04:42:27.783Z,101212.34
2023-04-28T04:44:57.148Z,101212.22
2023-04-28T04:47:24.232Z,101217.19
2023-04-28T04:49:53.735Z,101212.38
2023-04-28T04:52:20.592Z,101208.97
2023-04-28T04:54:52.059Z,101207.84
2023-04-28T04:57:19.195Z,101201.88
2023-04-28T04:59:46.216Z,101203.84
2023-04-28T05:02:13.580Z,101207.66
2023-04-28T05:04:40.967Z,101192.69
2023-04-28T05:07:08.101Z,101201.13
2023-04-28T05:09:37.217Z,101193.31
2023-04-28T05:12:04.520Z,101191.22
2023-04-28T05:14:31.511Z,101205.38
2023-04-28T05:16:58.615Z,101187.34
2023-04-28T05:19:25.825Z,101184.72
2023-04-28T05:21:54.511Z,101184.38
2023-04-28T05:24:26.967Z,101187.72
2023-04-28T05:26:54.547Z,101190.03
2023-04-28T05:29:22.046Z,101182.69
2023-04-28T05:31:49.069Z,101175.56
2023-04-28T05:34:18.358Z,101178.09
2023-04-28T05:36:45.446Z,101169.88
2023-04-28T05:39:12.317Z,101177.84
2023-04-28T05:41:39.280Z,101180.72
2023-04-28T05:44:08.778Z,101167.38
2023-04-28T05:46:36.919Z,101167.13
2023-04-28T05:49:03.839Z,101163.47
2023-04-28T05:51:33.658Z,101156.78
2023-04-28T05:54:00.683Z,101160.06
2023-04-28T05:56:30.116Z,101163.13
2023-04-28T05:58:58.631Z,101159.63
2023-04-28T06:01:25.574Z,101157.06
2023-04-28T06:03:56.646Z,101153.75
2023-04-28T06:06:24.411Z,101152.38
2023-04-28T06:08:51.546Z,101147.75
2023-04-28T06:11:22.136Z,101158.16
2023-04-28T06:13:53.012Z,101149.16
2023-04-28T06:16:23.593Z,101156.91
2023-04-28T06:18:50.900Z,101151.91
2023-04-28T06:21:17.847Z,101155.38
2023-04-28T06:23:44.801Z,101152.13
2023-04-28T06:26:12.009Z,101149.88
2023-04-28T06:28:43.627Z,101149.88
2023-04-28T06:31:10.694Z,101140.88
2023-04-28T06:33:40.803Z,101141.13
2023-04-28T06:36:08.093Z,101149.44
2023-04-28T06:38:34.969Z,101145.38
2023-04-28T06:41:05.325Z,101142.22
2023-04-28T06:43:33.704Z,101138.78
2023-04-28T06:46:01.179Z,101142.34
2023-04-28T06:48:28.092Z,101137.38
2023-04-28T06:50:57.970Z,101132.25
2023-04-28T06:53:24.961Z,101130.72
2023-04-28T06:55:52.046Z,101132.75
2023-04-28T06:58:19.131Z,101131.59
2023-04-28T07:00:46.140Z,101127.38
2023-04-28T07:03:13.404Z,101120.34
2023-04-28T07:05:40.620Z,101112.47
2023-04-28T07:08:10.489Z,101109.47
2023-04-28T07:10:40.149Z,101111.97
2023-04-28T07:13:10.997Z,101106.22
2023-04-28T07:15:40.645Z,101103.75
2023-04-28T07:18:11.563Z,101102.81
2023-04-28T07:20:40.009Z,101099.25
2023-04-28T07:23:08.100Z,101099.06
2023-04-28T07:25:38.565Z,101100.78
2023-04-28T07:28:06.291Z,101092.44
2023-04-28T07:30:36.546Z,101089.31
2023-04-28T07:33:03.694Z,101093.94
2023-04-28T07:35:30.724Z,101094.25
2023-04-28T07:38:01.130Z,101088.69
2023-04-28T07:40:28.002Z,101084.34
2023-04-28T07:42:54.915Z,101082.94
2023-04-28T07:45:21.892Z,101095.66
2023-04-28T07:47:51.103Z,101081.81
2023-04-28T07:50:18.193Z,101092.44
2023-04-28T07:52:45.190Z,101089.84
2023-04-28T07:55:12.117Z,101081.16
2023-04-28T07:57:42.332Z,101082.03
2023-04-28T08:00:09.794Z,101079.56
2023-04-28T08:02:36.938Z,101070.31
2023-04-28T08:05:04.523Z,101074.50
2023-04-28T08:07:34.084Z,101065.91
2023-04-28T08:10:01.370Z,101056.63
2023-04-28T08:12:28.303Z,101071.28
2023-04-28T08:14:55.357Z,101056.47
2023-04-28T08:17:22.263Z,101068.06
2023-04-28T08:19:51.425Z,101058.53
2023-04-28T08:22:20.925Z,101060.88
2023-04-28T08:24:47.836Z,101068.31
2023-04-28T08:27:19.194Z,101057.78
2023-04-28T08:29:48.321Z,101061.25
2023-04-28T08:32:15.225Z,101063.66
2023-04-28T08:34:42.374Z,101084.22
2023-04-28T08:37:09.569Z,101057.50
2023-04-28T08:39:38.753Z,101058.13
2023-04-28T08:42:08.147Z,101055.91
2023-04-28T08:44:41.840Z,101060.59
2023-04-28T08:47:16.466Z,101053.44
2023-04-28T08:49:47.095Z,101061.16
2023-04-28T08:52:17.753Z,101046.03
2023-04-28T08:54:47.216Z,101040.66
2023-04-28T08:57:14.539Z,101052.56
2023-04-28T08:59:42.093Z,101053.81
2023-04-28T09:02:09.760Z,101050.63
2023-04-28T09:04:37.225Z,101053.72
2023-04-28T09:07:04.490Z,101044.59
2023-04-28T09:09:34.747Z,101031.25
2023-04-28T09:12:05.473Z,101037.19
2023-04-28T09:14:35.825Z,101038.38
2023-04-28T09:17:09.830Z,101042.53
2023-04-28T09:19:45.566Z,101020.19
2023-04-28T09:22:24.693Z,101031.22
2023-04-28T09:24:55.508Z,101022.31
2023-04-28T09:27:28.959Z,101029.56
2023-04-28T09:29:58.460Z,101016.16
2023-04-28T09:32:27.997Z,101007.34
2023-04-28T09:34:59.537Z,101009.09
2023-04-28T09:37:30.843Z,101014.34
2023-04-28T09:40:08.333Z,101010.50
2023-04-28T09:42:40.708Z,101002.72
2023-04-28T09:45:09.445Z,100998.19
2023-04-28T09:47:43.065Z,101013.22
2023-04-28T09:50:14.719Z,101005.28
2023-04-28T09:52:45.864Z,101009.16
2023-04-28T09:55:15.593Z,101008.09
2023-04-28T09:57:49.816Z,101008.81
2023-04-28T10:00:20.487Z,101006.19
2023-04-28T10:02:51.594Z,100998.22
2023-04-28T10:05:22.666Z,100986.59
2023-04-28T10:07:50.309Z,100988.69
2023-04-28T10:10:17.897Z,100984.06
2023-04-28T10:12:45.168Z,100971.06
2023-04-28T10:15:16.529Z,100972.25
2023-04-28T10:17:47.145Z,100975.84
2023-04-28T10:20:16.468Z,100964.38
2023-04-28T10:23:39.172Z,100961.50
2023-04-28T10:26:14.185Z,100958.78
2023-04-28T10:28:55.090Z,100958.28
2023-04-28T10:31:23.025Z,100947.16
2023-04-28T10:33:50.554Z,100949.69
2023-04-28T10:36:51.020Z,100938.28
2023-04-28T10:39:18.513Z,100935.34
2023-04-28T10:41:47.857Z,100934.44
2023-04-28T10:44:44.527Z,100925.56
2023-04-28T10:47:11.869Z,100932.16
2023-04-28T10:50:09.098Z,100925.09
2023-04-28T10:52:39.662Z,100920.88
2023-04-28T10:55:39.986Z,100918.34
2023-04-28T10:58:29.890Z,100921.75
2023-04-28T11:01:24.836Z,100917.63
2023-04-28T11:04:04.856Z,100911.94
2023-04-28T11:06:40.618Z,100918.69
2023-04-28T11:09:17.517Z,100916.31
2023-04-28T11:12:07.031Z,100909.53
2023-04-28T11:14:38.019Z,100911.09
2023-04-28T11:17:13.084Z,100909.81
2023-04-28T11:19:45.323Z,100906.19
2023-04-28T11:22:21.831Z,100910.03
2023-04-28T11:25:03.012Z,100896.69
2023-04-28T11:27:34.640Z,100898.19
2023-04-28T11:30:01.995Z,100906.44
2023-04-28T11:32:36.633Z,100896.91
2023-04-28T11:35:09.709Z,100899.47
2023-04-28T11:37:37.262Z,100894.19
2023-04-28T11:40:14.801Z,100888.91
2023-04-28T11:42:51.375Z,100885.88
2023-04-28T11:45:20.854Z,100893.19
2023-04-28T11:47:47.713Z,100882.28
2023-04-28T11:50:17.703Z,100875.25
2023-04-28T11:52:53.590Z,100880.38
2023-04-28T11:55:20.752Z,100873.63
2023-04-28T11:58:00.454Z,100882.81
2023-04-28T12:00:28.292Z,100877.13
2023-04-28T12:02:58.444Z,100867.72
2023-04-28T12:05:30.291Z,100867.66
2023-04-28T12:07:57.228Z,100867.13
2023-04-28T12:10:26.353Z,100860.81
2023-04-28T12:12:56.180Z,100865.91
2023-04-28T12:15:24.761Z,100851.72
2023-04-28T12:17:52.191Z,100851.59
2023-04-28T12:20:37.160Z,100851.00
2023-04-28T12:23:11.245Z,100853.56
2023-04-28T12:25:46.259Z,100833.56
2023-04-28T12:28:17.729Z,100840.38
2023-04-28T12:30:44.663Z,100851.56
2023-04-28T12:33:28.868Z,100835.16
2023-04-28T12:35:59.710Z,100831.16
2023-04-28T12:38:28.336Z,100835.53
2023-04-28T12:40:57.433Z,100812.53
2023-04-28T12:43:28.214Z,100820.81
2023-04-28T12:45:56.488Z,100826.50
2023-04-28T12:48:25.771Z,100834.50
2023-04-28T12:50:54.957Z,100826.06
2023-04-28T12:53:21.866Z,100821.63
2023-04-28T12:55:48.815Z,100833.00
2023-04-28T12:58:18.385Z,100813.41
2023-04-28T13:00:45.265Z,100810.47
2023-04-28T13:03:12.822Z,100822.72
2023-04-28T13:05:44.643Z,100800.94
2023-04-28T13:08:12.367Z,100811.28
2023-04-28T13:10:40.624Z,100798.03
2023-04-28T13:13:09.787Z,100799.72
2023-04-28T13:15:38.729Z,100808.94
2023-04-28T13:18:11.322Z,100790.22
2023-04-28T13:20:38.350Z,100805.19
2023-04-28T13:23:05.230Z,100796.13
2023-04-28T13:25:32.080Z,100798.00
2023-04-28T13:27:58.947Z,100781.81
2023-04-28T13:30:26.681Z,100793.59
2023-04-28T13:32:54.938Z,100776.31
2023-04-28T13:35:26.258Z,100782.63
2023-04-28T13:37:56.408Z,100776.19
2023-04-28T13:40:28.052Z,100771.81
2023-04-28T13:42:55.452Z,100772.69
2023-04-28T13:45:26.405Z,100772.53
2023-04-28T13:47:57.240Z,100776.72
2023-04-28T13:50:24.181Z,100769.56
2023-04-28T13:52:55.674Z,100777.97
2023-04-28T13:55:28.271Z,100771.00
2023-04-28T13:58:01.525Z,100765.13
2023-04-28T14:00:32.242Z,100760.47
2023-04-28T14:03:02.960Z,100754.94
2023-04-28T14:05:36.105Z,100755.78
2023-04-28T14:08:11.690Z,100753.56
2023-04-28T14:10:38.564Z,100748.41
2023-04-28T14:13:05.564Z,100761.09
2023-04-28T14:15:33.144Z,100747.34
2023-04-28T14:18:03.196Z,100745.38
2023-04-28T14:20:31.263Z,100738.78
2023-04-28T14:22:59.494Z,100737.75
2023-04-28T14:25:31.637Z,100741.06
2023-04-28T14:27:58.888Z,100745.66
2023-04-28T14:30:28.524Z,100745.84
2023-04-28T14:32:55.708Z,100733.41
2023-04-28T14:35:24.987Z,100729.03
2023-04-28T14:37:54.523Z,100737.00
2023-04-28T14:40:24.723Z,100726.56
2023-04-28T14:42:54.747Z,100716.88
2023-04-28T14:45:22.033Z,100707.00
2023-04-28T14:47:49.738Z,100719.84
2023-04-28T14:50:16.809Z,100703.19
2023-04-28T14:52:44.150Z,100703.13
2023-04-28T14:55:11.102Z,100700.34
2023-04-28T14:57:38.387Z,100702.13
2023-04-28T15:00:08.097Z,100703.84
2023-04-28T15:02:38.890Z,100711.78
2023-04-28T15:05:06.597Z,100704.09
2023-04-28T15:07:33.789Z,100703.31
2023-04-28T15:10:01.011Z,100700.19
2023-04-28T15:12:30.561Z,100687.25
2023-04-28T15:14:58.439Z,100688.31
2023-04-28T15:17:25.564Z,100689.00
2023-04-28T15:19:54.749Z,100694.66
2023-04-28T15:22:24.806Z,100693.16
2023-04-28T15:24:52.285Z,100689.28
2023-04-28T15:27:23.179Z,100684.97
2023-04-28T15:29:53.585Z,100696.81
2023-04-28T15:32:20.560Z,100689.25
2023-04-28T15:34:52.818Z,100686.75
2023-04-28T15:37:38.865Z,100687.25
2023-04-28T15:40:11.724Z,100682.47
2023-04-28T15:42:49.034Z,100678.31
2023-04-28T15:45:22.045Z,100680.16
2023-04-28T15:47:50.827Z,100672.63
2023-04-28T15:50:20.395Z,100663.75
2023-04-28T15:52:49.724Z,100673.88
2023-04-28T15:55:19.190Z,100667.16
2023-04-28T15:57:54.337Z,100667.59
2023-04-28T16:00:23.778Z,100674.34
2023-04-28T16:02:53.969Z,100668.81
2023-04-28T16:05:21.114Z,100664.56
2023-04-28T16:07:48.580Z,100671.63
2023-04-28T16:10:16.907Z,100666.56
2023-04-28T16:12:43.998Z,100664.31
2023-04-28T16:15:13.211Z,100674.22
2023-04-28T16:17:41.201Z,100666.59
2023-04-28T16:20:13.404Z,100660.72
2023-04-28T16:22:41.360Z,100662.84
2023-04-28T16:25:11.944Z,100653.16
2023-04-28T16:27:42.995Z,100656.13
2023-04-28T16:30:12.390Z,100659.84
2023-04-28T16:32:41.965Z,100647.22
2023-04-28T16:35:15.462Z,100651.22
2023-04-28T16:37:43.317Z,100650.75
2023-04-28T16:40:13.463Z,100644.47
2023-04-28T16:42:41.983Z,100641.47
2023-04-28T16:45:09.914Z,100629.59
2023-04-28T16:47:36.967Z,100629.75
2023-04-28T16:50:06.710Z,100631.50
2023-04-28T16:52:33.738Z,100629.34
2023-04-28T16:55:00.828Z,100625.47
2023-04-28T16:57:30.038Z,100610.88
2023-04-28T16:59:56.981Z,100628.22
2023-04-28T17:02:29.638Z,100632.09
2023-04-28T17:04:57.002Z,100625.75
2023-04-28T17:07:25.598Z,100635.03
2023-04-28T17:09:52.957Z,100622.00
2023-04-28T17:12:21.048Z,100629.28
2023-04-28T17:14:48.078Z,100624.03
2023-04-28T17:17:18.167Z,100617.56
2023-04-28T17:19:45.386Z,100617.09
2023-04-28T17:22:12.659Z,100605.38
2023-04-28T17:24:41.869Z,100606.50
2023-04-28T17:27:11.713Z,100598.47
2023-04-28T17:29:38.714Z,100600.97
2023-04-28T17:32:05.907Z,100612.34
2023-04-28T17:34:35.779Z,100620.13
2023-04-28T17:37:02.708Z,100613.50
2023-04-28T17:39:29.750Z,100617.16
2023-04-28T17:42:00.382Z,100618.09
2023-04-28T17:44:27.437Z,100618.16
2023-04-28T17:46:56.768Z,100619.91
2023-04-28T17:49:27.177Z,100613.50
2023-04-28T17:51:54.129Z,100627.94
2023-04-28T17:54:26.722Z,100640.53
2023-04-28T17:56:54.803Z,100654.81
2023-04-28T17:59:24.711Z,100653.25
2023-04-28T18:01:56.220Z,100665.59
2023-04-28T18:04:26.221Z,100657.66
2023-04-28T18:06:53.134Z,100639.06
2023-04-28T18:09:22.801Z,100623.09
2023-04-28T18:11:49.756Z,100608.56
2023-04-28T18:14:18.531Z,100622.72
2023-04-28T18:16:45.598Z,100636.06
2023-04-28T18:19:15.112Z,100623.56
2023-04-28T18:21:46.580Z,100618.56
2023-04-28T18:24:16.495Z,100630.56
2023-04-28T18:26:45.874Z,100626.84
2023-04-28T18:29:12.944Z,100625.56
2023-04-28T18:31:42.612Z,100622.19
2023-04-28T18:34:09.759Z,100624.88
2023-04-28T18:36:37.175Z,100620.28
2023-04-28T18:39:08.743Z,100631.25
2023-04-28T18:41:41.410Z,100620.41
2023-04-28T18:44:10.631Z,100623.50
2023-04-28T18:46:43.297Z,100619.59
2023-04-28T18:49:12.760Z,100632.16
2023-04-28T18:51:39.680Z,100628.41
2023-04-28T18:54:08.838Z,100632.38
2023-04-28T18:56:36.660Z,100632.34
2023-04-28T18:59:09.561Z,100624.53
2023-04-28T19:01:37.365Z,100624.72
2023-04-28T19:04:05.076Z,100627.97
2023-04-28T19:06:32.095Z,100627.34
2023-04-28T19:08:59.241Z,100620.06
2023-04-28T19:11:26.702Z,100626.88
2023-04-28T19:13:54.317Z,100621.34
2023-04-28T19:16:21.402Z,100622.66
2023-04-28T19:18:53.158Z,100616.09
2023-04-28T19:21:20.155Z,100616.66
2023-04-28T19:23:51.812Z,100613.66
2023-04-28T19:26:21.793Z,100622.25
2023-04-28T19:28:48.716Z,100602.41
2023-04-28T19:31:16.345Z,100593.97
2023-04-28T19:33:45.622Z,100572.56
2023-04-28T19:36:12.524Z,100582.41
2023-04-28T19:38:40.253Z,100593.78
2023-04-28T19:41:11.815Z,100594.09
2023-04-28T19:43:38.730Z,100601.84
2023-04-28T19:46:05.651Z,100601.81
2023-04-28T19:48:32.659Z,100611.94
2023-04-28T19:50:59.510Z,100614.59
2023-04-28T19:53:26.420Z,100613.03
2023-04-28T19:55:53.256Z,100615.38
2023-04-28T19:58:20.787Z,100605.78
2023-04-28T20:00:50.061Z,100603.25
2023-04-28T20:03:17.506Z,100599.81
2023-04-28T20:05:44.489Z,100600.53
2023-04-28T20:08:12.737Z,100590.34
2023-04-28T20:10:40.035Z,100593.97
2023-04-28T20:13:10.065Z,100590.00
2023-04-28T20:15:37.692Z,100601.88
2023-04-28T20:18:04.675Z,100592.09
2023-04-28T20:20:31.589Z,100591.50
2023-04-28T20:22:58.464Z,100589.41
2023-04-28T20:25:28.072Z,100594.94
2023-04-28T20:27:58.038Z,100591.41
2023-04-28T20:30:27.709Z,100581.06
2023-04-28T20:32:54.847Z,100582.19
2023-04-28T20:35:23.013Z,100587.63
2023-04-28T20:37:49.917Z,100579.84
2023-04-28T20:40:21.385Z,100583.78
2023-04-28T20:42:49.482Z,100592.69
2023-04-28T20:45:18.369Z,100579.94
2023-04-28T20:47:45.385Z,100573.25
2023-04-28T20:50:15.621Z,100576.56
2023-04-28T20:52:45.634Z,100585.28
2023-04-28T20:55:12.536Z,100582.91
2023-04-28T20:57:42.452Z,100576.69
2023-04-28T21:00:10.593Z,100579.88
2023-04-28T21:02:37.884Z,100577.78
2023-04-28T21:05:07.674Z,100570.59
2023-04-28T21:07:34.554Z,100572.84
2023-04-28T21:10:01.483Z,100570.31
2023-04-28T21:12:28.344Z,100572.53
2023-04-28T21:14:55.263Z,100571.28
2023-04-28T21:17:22.144Z,100576.59
2023-04-28T21:19:49.484Z,100578.78
2023-04-28T21:22:16.666Z,100573.66
2023-04-28T21:24:46.118Z,100586.16
2023-04-28T21:27:12.959Z,100580.06
2023-04-28T21:29:39.877Z,100576.94
2023-04-28T21:32:06.787Z,100582.44
2023-04-28T21:34:38.200Z,100584.88
2023-04-28T21:37:08.146Z,100585.53
2023-04-28T21:39:37.220Z,100587.63
2023-04-28T21:42:09.147Z,100582.56
2023-04-28T21:44:38.527Z,100588.94
2023-04-28T21:47:08.985Z,100583.97
2023-04-28T21:49:36.228Z,100578.78
2023-04-28T21:52:06.228Z,100578.91
2023-04-28T21:54:33.144Z,100571.50
2023-04-28T21:57:00.044Z,100575.91
2023-04-28T21:59:26.900Z,100564.94
2023-04-28T22:01:57.005Z,100567.72
2023-04-28T22:04:24.041Z,100569.06
2023-04-28T22:06:51.055Z,100563.34
2023-04-28T22:09:20.477Z,100576.94
2023-04-28T22:11:47.405Z,100570.19
2023-04-28T22:14:34.952Z,100566.63
2023-04-28T22:17:03.519Z,100571.78
2023-04-28T22:19:30.378Z,100576.09
2023-04-28T22:21:57.779Z,100575.34
2023-04-28T22:24:24.658Z,100569.63
2023-04-28T22:26:51.521Z,100574.41
2023-04-28T22:29:20.825Z,100574.22
2023-04-28T22:31:47.808Z,100581.34
2023-04-28T22:34:18.084Z,100577.31
2023-04-28T22:36:47.745Z,100567.47
2023-04-28T22:39:17.111Z,100563.03
2023-04-28T22:41:43.968Z,100567.06
2023-04-28T22:44:10.910Z,100562.94
2023-04-28T22:46:40.076Z,100558.06
2023-04-28T22:49:07.149Z,100551.41
2023-04-28T22:51:35.653Z,100554.22
2023-04-28T22:54:02.979Z,100549.53
2023-04-28T22:56:32.331Z,100547.66
2023-04-28T22:58:59.216Z,100544.00
2023-04-28T23:01:29.183Z,100537.25
2023-04-28T23:03:58.407Z,100541.38
2023-04-28T23:06:28.744Z,100541.47
2023-04-28T23:08:56.065Z,100545.19
2023-04-28T23:11:24.174Z,100547.91
2023-04-28T23:13:54.228Z,100544.56
2023-04-28T23:16:21.389Z,100541.28
2023-04-28T23:18:50.464Z,100544.28
2023-04-28T23:21:17.330Z,100544.56
2023-04-28T23:23:46.409Z,100550.75
2023-04-28T23:26:13.658Z,100545.59
2023-04-28T23:28:43.782Z,100552.41
2023-04-28T23:31:10.760Z,100550.59
2023-04-28T23:33:40.183Z,100556.91
2023-04-28T23:36:09.738Z,100549.31
2023-04-28T23:38:38.938Z,100542.94
2023-04-28T23:41:06.526Z,100525.78
2023-04-28T23:43:33.559Z,100545.28
2023-04-28T23:46:00.553Z,100543.00
2023-04-28T23:48:29.598Z,100549.88
2023-04-28T23:50:58.927Z,100547.16
2023-04-28T23:53:25.946Z,100542.81
2023-04-28T23:55:55.292Z,100549.34
2023-04-28T23:58:22.138Z,100549.84
